Time;durP1;ratioP1;P1;durP2;ratioP2;P2;SDS_P1;SDS_P2;PMS_P1;PMS_P2;Temp;Humidity;BMP_temperature;BMP_pressure;BME280_temperature;BME280_humidity;BME280_pressure;Samples;Min_cycle;Max_cycle;Signal;HPM_P1;HPM_P2
2024/03/06 00:01:54;;;;;;;32.92;23.33;;;;;;;6.77;71.30;94355.69;4236847;27;20150;-69
2024/03/06 00:03:56;;;;;;;31.67;23.30;;;;;;;6.59;71.49;94355.63;4229552;27;20052;-71
2024/03/06 00:05:58;;;;;;;36.55;25.52;;;;;;;6.51;71.46;94350.31;4239121;27;20055;-69
2024/03/06 00:08:03;;;;;;;37.20;26.15;;;;;;;6.25;72.39;94357.94;4224294;28;20089;-68
2024/03/06 00:10:05;;;;;;;34.65;25.23;;;;;;;6.12;72.38;94361.66;4213387;27;20044;-71
2024/03/06 00:12:07;;;;;;;34.42;24.42;;;;;;;6.18;73.03;94360.28;4238377;27;20402;-72
2024/03/06 00:14:12;;;;;;;33.22;24.55;;;;;;;6.40;73.07;94353.91;4232842;27;20126;-69
2024/03/06 00:16:14;;;;;;;33.28;25.35;;;;;;;6.65;72.22;94354.25;4235387;27;20123;-72
2024/03/06 00:18:20;;;;;;;38.00;25.30;;;;;;;6.86;71.01;94361.81;4240680;27;20165;-69
2024/03/06 00:20:21;;;;;;;33.40;24.05;;;;;;;7.02;70.70;94353.38;4239678;27;20066;-70
2024/03/06 00:22:23;;;;;;;33.45;23.63;;;;;;;7.14;69.71;94354.78;4238078;27;20059;-70
2024/03/06 00:24:26;;;;;;;30.50;22.10;;;;;;;7.21;69.33;94355.88;4243844;27;20043;-70
2024/03/06 00:26:27;;;;;;;29.35;22.88;;;;;;;7.31;68.98;94346.22;4216965;28;20054;-70
2024/03/06 00:28:29;;;;;;;32.35;22.25;;;;;;;7.38;68.72;94347.25;4220084;28;20100;-70
2024/03/06 00:30:32;;;;;;;34.25;22.75;;;;;;;7.41;68.03;94347.91;4230027;27;20396;-72
2024/03/06 00:32:33;;;;;;;34.30;23.35;;;;;;;7.43;67.67;94348.59;4236309;27;20043;-72
2024/03/06 00:34:35;;;;;;;31.58;22.83;;;;;;;7.45;67.45;94346.66;4237046;27;20039;-71
2024/03/06 00:36:38;;;;;;;31.02;22.98;;;;;;;7.48;67.44;94349.75;4238044;27;20057;-70
2024/03/06 00:38:39;;;;;;;34.20;24.63;;;;;;;7.53;67.87;94351.94;4241695;27;20104;-69
2024/03/06 00:40:41;;;;;;;37.10;24.23;;;;;;;7.53;67.46;94350.16;4231844;27;20146;-69
2024/03/06 00:42:43;;;;;;;33.83;23.13;;;;;;;7.56;67.78;94349.03;4242579;27;20138;-69
2024/03/06 00:44:46;;;;;;;33.60;24.35;;;;;;;7.58;67.35;94353.13;4226070;28;20055;-69
2024/03/06 00:46:47;;;;;;;34.38;24.60;;;;;;;7.58;67.43;94349.72;4241473;27;20134;-69
2024/03/06 00:48:50;;;;;;;38.70;23.58;;;;;;;7.53;67.43;94352.75;4242350;27;20165;-68
2024/03/06 00:50:53;;;;;;;36.80;24.90;;;;;;;7.51;67.61;94349.47;4209259;28;20139;-71
2024/03/06 00:52:55;;;;;;;35.25;23.80;;;;;;;7.52;67.49;94347.69;4244091;27;20050;-69
2024/03/06 00:54:57;;;;;;;30.77;22.35;;;;;;;7.54;67.68;94353.56;4242697;27;20061;-70
2024/03/06 00:56:59;;;;;;;33.25;23.50;;;;;;;7.58;67.18;94349.72;4233970;27;20126;-72
2024/03/06 00:59:01;;;;;;;34.58;23.55;;;;;;;7.58;67.00;94350.53;4238533;27;20051;-72
2024/03/06 01:01:04;;;;;;;35.20;24.15;;;;;;;7.55;67.16;94356.03;4241174;27;20061;-71
2024/03/06 01:03:06;;;;;;;32.17;22.83;;;;;;;7.57;67.33;94350.66;4231962;27;20068;-71
2024/03/06 01:05:09;;;;;;;35.63;23.20;;;;;;;7.61;67.48;94356.41;4241629;27;20348;-71
2024/03/06 01:07:11;;;;;;;32.20;22.95;;;;;;;7.57;67.45;94355.88;4240604;27;20435;-70
2024/03/06 01:09:13;;;;;;;31.30;22.02;;;;;;;7.58;67.51;94358.34;4239731;27;20051;-69
2024/03/06 01:11:15;;;;;;;32.38;22.38;;;;;;;7.62;67.16;94358.88;4217717;28;20158;-70
2024/03/06 01:13:20;;;;;;;30.73;21.15;;;;;;;7.58;67.32;94358.34;4222787;28;20055;-70
2024/03/06 01:15:22;;;;;;;33.00;23.20;;;;;;;7.54;67.16;94361.41;4230558;27;20130;-68
2024/03/06 01:17:24;;;;;;;32.28;22.38;;;;;;;7.52;67.48;94368.53;4211046;28;20050;-71
2024/03/06 01:19:26;;;;;;;28.98;21.67;;;;;;;7.53;67.16;94357.16;4234991;27;20143;-70
2024/03/06 01:21:28;;;;;;;28.33;21.00;;;;;;;7.50;67.58;94355.66;4241360;27;20043;-70
2024/03/06 01:23:30;;;;;;;28.27;19.75;;;;;;;7.50;67.58;94347.81;4241635;27;20126;-71
2024/03/06 01:25:32;;;;;;;27.35;20.05;;;;;;;7.48;67.46;94348.94;4223738;28;20050;-72
2024/03/06 01:27:34;;;;;;;29.08;21.33;;;;;;;7.48;67.59;94351.56;4239632;27;20479;-71
2024/03/06 01:29:37;;;;;;;28.50;20.80;;;;;;;7.45;67.76;94349.25;4225175;28;20058;-70
2024/03/06 01:31:38;;;;;;;26.48;20.25;;;;;;;7.45;67.90;94347.47;4242073;27;20047;-72
2024/03/06 01:33:40;;;;;;;28.38;20.33;;;;;;;7.52;67.48;94347.69;4224542;28;20540;-70
2024/03/06 01:35:42;;;;;;;28.08;20.92;;;;;;;7.53;67.97;94349.34;4243407;27;20059;-71
2024/03/06 01:37:45;;;;;;;29.30;20.67;;;;;;;7.54;67.83;94346.56;4240419;27;20127;-70
2024/03/06 01:39:47;;;;;;;27.65;20.00;;;;;;;7.57;67.75;94353.25;4235544;27;20059;-69
2024/03/06 01:41:50;;;;;;;27.55;21.38;;;;;;;7.53;67.15;94344.94;4242409;27;20575;-70
2024/03/06 01:43:52;;;;;;;27.03;20.00;;;;;;;7.56;67.85;94349.03;4239503;27;20076;-70
2024/03/06 01:45:54;;;;;;;28.48;20.27;;;;;;;7.53;67.44;94344.13;4234859;27;20366;-69
2024/03/06 01:47:56;;;;;;;28.58;20.48;;;;;;;7.53;67.97;94347.56;4237147;27;20043;-72
2024/03/06 01:49:58;;;;;;;32.67;21.38;;;;;;;7.57;67.65;94345.44;4221747;28;20052;-68
2024/03/06 01:52:01;;;;;;;27.52;21.75;;;;;;;7.56;67.48;94341.22;4240484;27;20408;-69
2024/03/06 01:54:06;;;;;;;28.98;21.73;;;;;;;7.51;67.73;94346.88;4239330;27;20465;-70
2024/03/06 01:56:11;;;;;;;32.90;21.42;;;;;;;7.50;67.67;94354.84;4208522;28;20050;-71
2024/03/06 01:58:13;;;;;;;30.13;22.45;;;;;;;7.47;67.94;94348.13;4224073;28;20230;-69
2024/03/06 02:00:16;;;;;;;30.23;22.83;;;;;;;7.48;67.94;94354.97;4236137;27;20203;-69
2024/03/06 02:02:18;;;;;;;29.05;22.10;;;;;;;7.45;68.08;94351.88;4240369;27;20047;-69
2024/03/06 02:04:20;;;;;;;30.80;22.50;;;;;;;7.41;68.04;94348.72;4238411;27;20050;-69
2024/03/06 02:06:22;;;;;;;33.05;22.85;;;;;;;7.35;68.00;94355.34;4233912;27;20058;-69
2024/03/06 02:08:24;;;;;;;29.05;21.77;;;;;;;7.27;68.21;94354.44;4222911;28;20047;-69
2024/03/06 02:10:27;;;;;;;31.52;22.13;;;;;;;7.22;68.52;94357.50;4223725;28;20549;-69
2024/03/06 02:12:29;;;;;;;27.95;21.35;;;;;;;7.18;68.86;94363.97;4218491;28;20047;-71
2024/03/06 02:14:31;;;;;;;32.17;21.80;;;;;;;7.14;69.00;94370.41;4221675;28;20081;-69
2024/03/06 02:16:33;;;;;;;26.92;22.13;;;;;;;7.11;68.87;94362.91;4230680;27;20090;-69
2024/03/06 02:18:34;;;;;;;29.70;21.70;;;;;;;6.98;69.01;94369.28;4221195;28;20280;-70
2024/03/06 02:20:40;;;;;;;30.08;21.92;;;;;;;6.98;69.48;94366.66;4234935;27;20519;-69
2024/03/06 02:22:42;;;;;;;29.23;22.10;;;;;;;7.02;68.99;94377.63;4236242;27;20059;-69
2024/03/06 02:24:47;;;;;;;30.73;22.23;;;;;;;7.07;68.88;94377.19;4230585;27;20052;-70
2024/03/06 02:26:48;;;;;;;31.55;22.55;;;;;;;7.02;68.71;94376.81;4212221;28;20118;-70
2024/03/06 02:28:52;;;;;;;31.02;22.23;;;;;;;6.82;68.91;94376.91;4242533;27;20111;-69
2024/03/06 02:30:54;;;;;;;33.88;22.60;;;;;;;6.73;69.33;94382.97;4239834;27;20391;-70
2024/03/06 02:32:56;;;;;;;31.58;22.08;;;;;;;6.58;69.94;94387.81;4241810;28;20051;-70
2024/03/06 02:34:58;;;;;;;30.23;22.92;;;;;;;6.48;69.99;94390.47;4241347;28;20135;-69
2024/03/06 02:37:00;;;;;;;29.80;22.35;;;;;;;6.44;70.26;94388.28;4238086;28;20044;-70
2024/03/06 02:39:08;;;;;;;30.35;22.35;;;;;;;6.27;69.81;94387.22;4234852;28;20507;-68
2024/03/06 02:41:11;;;;;;;32.00;22.77;;;;;;;6.24;70.15;94390.09;4242264;28;20043;-68
2024/03/06 02:43:13;;;;;;;29.80;21.30;;;;;;;6.05;70.57;94399.59;4240866;28;20436;-67
2024/03/06 02:45:15;;;;;;;30.48;21.95;;;;;;;5.63;71.12;94394.63;4239462;28;20055;-69
2024/03/06 02:47:17;;;;;;;30.00;22.30;;;;;;;5.27;73.09;94396.94;4242877;28;20055;-69
2024/03/06 02:49:19;;;;;;;30.33;22.77;;;;;;;5.09;73.91;94396.75;4241436;28;20047;-70
2024/03/06 02:51:22;;;;;;;34.13;23.30;;;;;;;5.06;74.38;94389.22;4223867;28;20083;-69
2024/03/06 02:53:25;;;;;;;30.83;23.13;;;;;;;5.18;74.83;94392.53;4236335;28;20476;-70
2024/03/06 02:55:27;;;;;;;32.35;23.00;;;;;;;5.39;74.44;94389.00;4233653;28;20145;-70
2024/03/06 02:57:29;;;;;;;29.45;23.13;;;;;;;5.60;73.92;94386.31;4242372;28;20136;-69
2024/03/06 02:59:31;;;;;;;28.35;22.45;;;;;;;5.78;73.31;94386.44;4242869;28;20043;-70
2024/03/06 03:01:33;;;;;;;30.98;23.00;;;;;;;5.98;72.44;94388.09;4238843;28;20044;-69
2024/03/06 03:03:36;;;;;;;28.83;21.85;;;;;;;6.18;71.79;94393.28;4239549;28;20044;-70
2024/03/06 03:05:38;;;;;;;33.55;21.85;;;;;;;6.27;70.93;94390.63;4233672;28;20047;-70
2024/03/06 03:07:41;;;;;;;29.67;21.33;;;;;;;6.33;70.59;94394.47;4224329;28;20047;-70
2024/03/06 03:09:43;;;;;;;27.75;20.60;;;;;;;6.21;70.19;94392.97;4241145;28;20043;-72
2024/03/06 03:11:47;;;;;;;26.05;20.15;;;;;;;6.18;70.41;94395.88;4222759;28;20088;-72
2024/03/06 03:13:49;;;;;;;26.20;20.85;;;;;;;6.18;70.34;94394.09;4223293;28;20050;-70
2024/03/06 03:15:51;;;;;;;30.70;21.30;;;;;;;6.02;69.75;94394.63;4228817;28;20142;-70
2024/03/06 03:17:53;;;;;;;29.33;21.17;;;;;;;5.86;70.30;94389.16;4241012;27;20059;-69
2024/03/06 03:19:55;;;;;;;27.48;21.27;;;;;;;5.73;71.55;94390.25;4243321;27;20077;-69
2024/03/06 03:21:57;;;;;;;28.48;20.30;;;;;;;5.80;71.90;94395.72;4238000;27;20065;-69
2024/03/06 03:23:59;;;;;;;28.48;20.95;;;;;;;5.85;71.23;94400.50;4242766;27;20062;-70
2024/03/06 03:26:03;;;;;;;27.58;19.83;;;;;;;5.82;70.73;94399.00;4240657;27;20120;-69
2024/03/06 03:28:05;;;;;;;31.05;21.00;;;;;;;5.78;70.52;94408.03;4221878;27;20590;-70
2024/03/06 03:30:11;;;;;;;24.55;19.95;;;;;;;5.65;70.96;94408.31;4244833;27;20083;-69
2024/03/06 03:32:13;;;;;;;31.00;21.95;;;;;;;5.63;71.57;94410.22;4227403;28;20108;-71
2024/03/06 03:34:15;;;;;;;27.80;20.60;;;;;;;5.67;71.62;94406.41;4226313;28;20624;-70
2024/03/06 03:36:17;;;;;;;25.70;19.73;;;;;;;5.70;71.14;94403.53;4233415;27;20048;-70
2024/03/06 03:38:18;;;;;;;27.27;19.35;;;;;;;5.71;71.18;94401.75;4244698;27;20273;-71
2024/03/06 03:40:21;;;;;;;28.23;20.67;;;;;;;5.80;70.93;94400.13;4239531;27;20047;-70
2024/03/06 03:42:23;;;;;;;27.90;20.80;;;;;;;5.83;71.29;94400.66;4237894;27;20379;-70
2024/03/06 03:44:25;;;;;;;27.90;21.00;;;;;;;5.92;70.77;94405.03;4233319;27;20121;-69
2024/03/06 03:46:27;;;;;;;28.77;20.50;;;;;;;6.02;70.68;94407.66;4232826;27;20126;-70
2024/03/06 03:48:29;;;;;;;27.80;20.20;;;;;;;6.05;70.13;94403.97;4237923;27;20316;-68
2024/03/06 03:50:31;;;;;;;26.42;20.05;;;;;;;6.12;70.03;94399.84;4242130;27;20051;-68
2024/03/06 03:52:33;;;;;;;27.25;19.65;;;;;;;6.18;69.95;94407.09;4241020;27;20439;-70
2024/03/06 03:54:35;;;;;;;25.67;19.65;;;;;;;6.30;69.95;94410.34;4239467;27;20051;-69
2024/03/06 03:56:37;;;;;;;25.25;20.08;;;;;;;6.38;69.58;94410.47;4243843;27;20107;-70
2024/03/06 03:58:39;;;;;;;24.95;19.48;;;;;;;6.48;68.89;94410.47;4242361;27;20112;-70
2024/03/06 04:00:41;;;;;;;26.02;19.20;;;;;;;6.54;68.61;94409.91;4245491;27;20419;-69
2024/03/06 04:02:43;;;;;;;24.13;17.60;;;;;;;6.59;68.65;94414.69;4239424;27;20067;-68
2024/03/06 04:04:45;;;;;;;26.63;17.83;;;;;;;6.63;68.21;94405.63;4237587;27;20118;-70
2024/03/06 04:06:47;;;;;;;26.45;18.48;;;;;;;6.58;68.29;94411.22;4243775;27;20143;-70
2024/03/06 04:08:48;;;;;;;25.25;18.77;;;;;;;6.52;68.61;94412.63;4244349;27;20078;-70
2024/03/06 04:10:50;;;;;;;25.92;19.27;;;;;;;6.55;68.60;94416.72;4244711;27;20039;-71
2024/03/06 04:12:53;;;;;;;32.58;21.05;;;;;;;6.54;68.60;94420.31;4243804;27;20055;-70
2024/03/06 04:14:55;;;;;;;26.90;19.50;;;;;;;6.52;68.92;94425.66;4241110;27;20050;-70
2024/03/06 04:16:57;;;;;;;33.85;20.15;;;;;;;6.54;68.62;94426.34;4241842;27;20055;-70
2024/03/06 04:18:58;;;;;;;25.23;19.67;;;;;;;6.56;68.34;94429.63;4225849;28;20385;-70
2024/03/06 04:21:05;;;;;;;30.17;20.58;;;;;;;6.57;68.27;94431.25;4241360;27;20083;-70
2024/03/06 04:23:07;;;;;;;28.65;20.75;;;;;;;6.55;68.36;94437.56;4222785;28;20044;-70
2024/03/06 04:25:09;;;;;;;29.95;20.83;;;;;;;6.53;68.64;94435.09;4242134;27;20442;-68
2024/03/06 04:27:11;;;;;;;27.75;20.17;;;;;;;6.56;68.60;94440.03;4243136;27;20483;-70
2024/03/06 04:29:13;;;;;;;27.98;21.85;;;;;;;6.59;68.40;94438.91;4243739;27;20047;-70
2024/03/06 04:31:15;;;;;;;29.60;21.15;;;;;;;6.57;68.36;94440.84;4214444;28;20074;-67
2024/03/06 04:33:17;;;;;;;28.67;22.20;;;;;;;6.55;68.84;94440.97;4218056;28;20048;-72
2024/03/06 04:35:19;;;;;;;30.23;22.20;;;;;;;6.57;68.52;94448.66;4235497;27;20132;-70
2024/03/06 04:37:21;;;;;;;31.00;23.35;;;;;;;6.59;68.81;94444.13;4244212;27;20065;-70
2024/03/06 04:39:23;;;;;;;28.35;18.27;;;;;;;6.47;68.04;94437.44;4226191;28;20049;-70
2024/03/06 04:41:27;;;;;;;20.83;15.45;;;;;;;5.91;67.54;94444.97;4243340;27;20508;-69
2024/03/06 04:43:30;;;;;;;22.77;17.02;;;;;;;5.54;69.29;94455.22;4243970;27;20052;-70
2024/03/06 04:45:31;;;;;;;24.58;17.33;;;;;;;5.31;70.45;94457.22;4240709;27;20055;-69
2024/03/06 04:47:33;;;;;;;22.40;17.80;;;;;;;4.81;71.44;94465.78;4239958;27;20157;-70
2024/03/06 04:49:35;;;;;;;27.63;18.40;;;;;;;4.58;72.66;94470.34;4238867;27;20047;-70
2024/03/06 04:51:37;;;;;;;25.33;18.33;;;;;;;4.58;73.29;94466.88;4235069;27;20043;-69
2024/03/06 04:53:40;;;;;;;27.30;18.60;;;;;;;4.58;73.01;94469.50;4243424;27;20214;-71
2024/03/06 04:55:42;;;;;;;32.45;19.67;;;;;;;4.60;73.48;94467.59;4244591;27;20054;-70
2024/03/06 04:57:45;;;;;;;24.00;18.67;;;;;;;4.81;73.85;94470.97;4243824;27;20123;-69
2024/03/06 04:59:47;;;;;;;25.25;17.63;;;;;;;5.07;72.81;94473.94;4242026;27;20455;-69
2024/03/06 05:01:49;;;;;;;26.05;18.33;;;;;;;5.30;71.69;94465.97;4243496;27;20116;-71
2024/03/06 05:03:51;;;;;;;26.55;18.73;;;;;;;5.48;71.46;94468.75;4244337;27;20096;-70
2024/03/06 05:06:11;;;;;;;27.70;17.88;;;;;;;5.65;70.40;94472.47;4240355;27;20100;-70
2024/03/06 05:08:30;;;;;;;27.05;18.48;;;;;;;5.82;70.46;94463.19;4239551;27;20119;-70
2024/03/06 05:10:50;;;;;;;31.42;18.45;;;;;;;5.92;70.25;94459.63;4218376;28;20424;-73
2024/03/06 05:13:09;;;;;;;27.25;18.08;;;;;;;6.09;69.96;94465.97;4226557;27;20116;-72
2024/03/06 05:15:29;;;;;;;28.95;19.05;;;;;;;6.16;68.90;94463.63;4234638;27;20043;-72
2024/03/06 05:17:48;;;;;;;28.58;18.50;;;;;;;6.28;68.84;94472.09;4233500;27;20038;-73
2024/03/06 05:20:07;;;;;;;30.80;19.00;;;;;;;6.33;68.67;94469.91;4243767;27;20049;-69
2024/03/06 05:22:26;;;;;;;29.48;19.17;;;;;;;6.39;67.91;94461.56;4234790;27;20502;-73
2024/03/06 05:24:45;;;;;;;30.08;19.90;;;;;;;6.42;68.04;94463.88;4235978;27;20118;-70
2024/03/06 05:27:05;;;;;;;34.15;20.70;;;;;;;6.54;67.93;94464.56;4238033;27;20269;-71
2024/03/06 05:29:25;;;;;;;32.58;21.23;;;;;;;6.60;67.97;94476.16;4240198;27;20034;-72
2024/03/06 05:31:44;;;;;;;30.85;21.30;;;;;;;6.66;67.51;94471.22;4233912;27;20459;-71
2024/03/06 05:34:05;;;;;;;31.20;22.33;;;;;;;6.70;67.47;94476.97;4242588;27;20100;-69
2024/03/06 05:36:26;;;;;;;35.58;23.58;;;;;;;6.76;66.98;94472.03;4243463;27;20046;-70
2024/03/06 05:38:45;;;;;;;31.75;21.98;;;;;;;6.82;66.81;94480.22;4221810;27;20552;-68
2024/03/06 05:41:04;;;;;;;32.58;21.77;;;;;;;6.90;67.22;94480.34;4240940;27;20042;-71
2024/03/06 05:43:24;;;;;;;38.38;24.25;;;;;;;6.93;67.13;94477.47;4240848;27;20122;-70
2024/03/06 05:45:43;;;;;;;38.83;23.02;;;;;;;6.97;66.74;94478.81;4236745;27;20169;-72
2024/03/06 05:48:03;;;;;;;36.13;21.60;;;;;;;6.98;65.82;94475.25;4239656;27;20044;-71
2024/03/06 05:50:23;;;;;;;30.55;20.63;;;;;;;6.98;66.07;94485.66;4238806;27;20144;-68
2024/03/06 05:52:42;;;;;;;32.95;22.65;;;;;;;7.04;66.98;94492.91;4217568;27;20041;-69
2024/03/06 05:55:02;;;;;;;35.20;22.17;;;;;;;7.01;66.03;94489.75;4233977;27;20042;-71
2024/03/06 05:57:21;;;;;;;33.47;21.83;;;;;;;6.86;66.23;94495.44;4241758;27;20112;-70
2024/03/06 05:59:41;;;;;;;33.08;22.10;;;;;;;6.79;67.10;94493.53;4242945;27;20035;-72
2024/03/06 06:01:44;;;;;;;33.88;22.13;;;;;;;6.83;67.28;94498.31;4242799;27;20100;-69
2024/03/06 06:03:49;;;;;;;31.10;21.08;;;;;;;6.87;67.36;94499.66;4238579;27;20055;-72
2024/03/06 06:05:50;;;;;;;31.55;22.25;;;;;;;6.95;67.39;94497.19;4242858;27;20451;-71
2024/03/06 06:07:53;;;;;;;32.78;22.90;;;;;;;7.04;66.83;94503.31;4243335;27;20047;-70
2024/03/06 06:09:55;;;;;;;34.80;23.73;;;;;;;7.05;67.05;94504.94;4240340;27;20097;-72
2024/03/06 06:11:57;;;;;;;37.28;22.75;;;;;;;7.08;66.58;94506.47;4231469;27;20166;-70
2024/03/06 06:13:59;;;;;;;32.28;21.60;;;;;;;7.13;66.96;94504.25;4238926;27;20481;-71
2024/03/06 06:16:04;;;;;;;35.83;23.35;;;;;;;7.16;66.59;94510.00;4239281;27;20047;-70
2024/03/06 06:18:05;;;;;;;37.83;24.77;;;;;;;7.23;66.74;94506.81;4243243;27;20055;-71
2024/03/06 06:20:09;;;;;;;38.15;23.13;;;;;;;7.31;66.63;94507.75;4224414;28;20469;-71
2024/03/06 06:22:12;;;;;;;33.85;23.15;;;;;;;7.30;66.25;94494.88;4236865;27;20439;-70
2024/03/06 06:24:14;;;;;;;36.10;22.58;;;;;;;7.32;66.48;94506.78;4232491;27;20052;-70
2024/03/06 06:26:16;;;;;;;42.72;25.08;;;;;;;7.36;66.46;94500.31;4240676;27;20079;-70
2024/03/06 06:28:18;;;;;;;40.95;25.10;;;;;;;7.46;66.50;94496.84;4242963;27;20130;-70
2024/03/06 06:30:20;;;;;;;36.50;22.77;;;;;;;7.59;65.98;94494.72;4240754;27;20039;-71
2024/03/06 06:32:22;;;;;;;33.67;23.05;;;;;;;7.76;65.58;94493.91;4239051;28;20425;-70
2024/03/06 06:34:27;;;;;;;33.75;23.23;;;;;;;7.84;64.37;94502.81;4239370;28;20048;-70
2024/03/06 06:36:29;;;;;;;36.03;22.13;;;;;;;7.89;64.79;94496.16;4228791;28;20519;-72
2024/03/06 06:38:31;;;;;;;36.97;23.33;;;;;;;8.00;65.02;94489.91;4234544;28;20108;-73
2024/03/06 06:40:33;;;;;;;32.30;22.58;;;;;;;8.07;64.94;94484.97;4241672;28;20046;-70
2024/03/06 06:42:38;;;;;;;35.15;23.83;;;;;;;8.06;63.86;94486.72;4241940;28;20096;-69
2024/03/06 06:44:41;;;;;;;35.47;24.23;;;;;;;8.11;64.43;94488.88;4241689;28;20050;-70
2024/03/06 06:46:43;;;;;;;38.40;24.05;;;;;;;8.17;64.25;94491.75;4242074;28;20073;-70
2024/03/06 06:48:45;;;;;;;36.88;24.88;;;;;;;8.14;63.65;94493.81;4206360;28;20052;-68
2024/03/06 06:50:47;;;;;;;42.97;26.02;;;;;;;8.05;64.30;94498.13;4233779;28;20057;-72
2024/03/06 06:52:49;;;;;;;41.95;24.70;;;;;;;8.05;64.16;94498.13;4234861;27;20055;-70
2024/03/06 06:54:51;;;;;;;42.72;24.40;;;;;;;8.14;64.83;94494.63;4238470;27;20092;-72
2024/03/06 06:56:53;;;;;;;35.03;23.65;;;;;;;8.26;64.42;94504.84;4236957;27;20439;-71
2024/03/06 06:58:56;;;;;;;38.13;24.65;;;;;;;8.27;63.86;94509.09;4237514;27;20134;-71
2024/03/06 07:00:58;;;;;;;43.40;25.23;;;;;;;8.34;63.97;94510.94;4246052;27;20118;-70
2024/03/06 07:03:00;;;;;;;36.95;24.17;;;;;;;8.44;63.72;94503.06;4245708;27;20055;-71
2024/03/06 07:05:04;;;;;;;41.92;24.20;;;;;;;8.54;63.72;94510.81;4246296;27;20467;-72
2024/03/06 07:07:06;;;;;;;31.13;22.42;;;;;;;8.65;62.54;94507.97;4242359;27;20108;-70
2024/03/06 07:09:09;;;;;;;37.67;22.88;;;;;;;8.65;62.72;94499.31;4235906;27;20126;-71
2024/03/06 07:11:11;;;;;;;40.03;22.33;;;;;;;8.59;63.23;94506.78;4244002;27;20414;-71
2024/03/06 07:13:13;;;;;;;32.80;21.67;;;;;;;8.57;63.16;94502.69;4224741;27;20047;-70
2024/03/06 07:15:15;;;;;;;29.52;21.27;;;;;;;8.61;63.04;94507.47;4235754;27;20039;-71
2024/03/06 07:17:16;;;;;;;33.15;20.73;;;;;;;8.70;63.36;94512.75;4244574;27;20568;-70
2024/03/06 07:19:18;;;;;;;39.53;21.45;;;;;;;8.63;63.13;94502.09;4242249;27;20108;-71
2024/03/06 07:21:21;;;;;;;32.30;21.42;;;;;;;8.29;64.37;94512.38;4241979;27;20395;-70
2024/03/06 07:23:23;;;;;;;34.88;23.17;;;;;;;8.05;64.77;94512.97;4242855;27;20088;-71
2024/03/06 07:25:24;;;;;;;36.33;21.73;;;;;;;8.18;65.81;94498.59;4242308;27;20351;-72
2024/03/06 07:27:27;;;;;;;33.15;22.40;;;;;;;8.39;65.54;94507.91;4233991;27;20081;-72
2024/03/06 07:29:29;;;;;;;35.03;22.38;;;;;;;8.57;64.23;94513.94;4232857;27;20103;-70
2024/03/06 07:31:32;;;;;;;31.70;22.00;;;;;;;8.51;63.71;94511.94;4234325;27;20048;-71
2024/03/06 07:33:37;;;;;;;35.08;23.05;;;;;;;8.60;64.65;94503.22;4229428;27;20175;-71
2024/03/06 07:35:39;;;;;;;37.45;22.80;;;;;;;8.69;64.39;94508.47;4235972;27;20047;-69
2024/03/06 07:37:44;;;;;;;37.85;21.80;;;;;;;8.75;64.31;94500.03;4242479;27;20047;-71
2024/03/06 07:39:46;;;;;;;32.72;23.30;;;;;;;8.77;63.99;94508.53;4242494;27;20462;-69
2024/03/06 07:41:52;;;;;;;32.53;22.25;;;;;;;8.90;63.32;94498.50;4239780;27;20046;-72
2024/03/06 07:43:54;;;;;;;41.28;22.20;;;;;;;8.85;63.46;94497.34;4245323;27;20463;-71
2024/03/06 07:45:56;;;;;;;36.63;23.35;;;;;;;8.37;63.96;94500.22;4244119;27;20070;-72
2024/03/06 07:47:58;;;;;;;36.15;23.25;;;;;;;8.25;65.06;94501.41;4226452;28;20484;-71
2024/03/06 07:50:00;;;;;;;43.38;25.70;;;;;;;8.24;65.15;94499.78;4223125;28;20131;-72
2024/03/06 07:52:02;;;;;;;35.75;23.70;;;;;;;8.07;65.70;94504.03;4209923;28;20492;-71
2024/03/06 07:54:04;;;;;;;35.72;24.35;;;;;;;8.15;66.02;94504.13;4245577;27;20419;-70
2024/03/06 07:56:07;;;;;;;32.63;22.83;;;;;;;8.30;65.48;94504.41;4241910;27;20047;-70
2024/03/06 07:58:09;;;;;;;34.63;23.63;;;;;;;8.51;65.36;94501.50;4226617;28;20141;-71
2024/03/06 08:00:14;;;;;;;36.47;23.23;;;;;;;8.73;64.77;94501.97;4243434;27;20468;-71
2024/03/06 08:02:18;;;;;;;37.08;23.55;;;;;;;8.48;63.95;94501.00;4244426;27;20116;-71
2024/03/06 08:04:20;;;;;;;;;;;;;;;8.51;64.49;94504.09;4242694;27;20052;-72
2024/03/06 08:06:22;;;;;;;34.45;21.75;;;;;;;8.80;65.11;94501.22;4245421;27;20376;-72
2024/03/06 08:08:24;;;;;;;34.67;22.00;;;;;;;9.05;64.03;94503.19;4236769;27;20488;-73
2024/03/06 08:10:25;;;;;;;36.03;21.27;;;;;;;9.13;62.89;94511.06;4243605;27;20418;-71
2024/03/06 08:12:27;;;;;;;36.70;23.95;;;;;;;9.28;63.06;94513.94;4235787;27;20039;-71
2024/03/06 08:14:29;;;;;;;34.40;22.90;;;;;;;9.47;62.25;94512.88;4240164;27;20058;-72
2024/03/06 08:16:31;;;;;;;30.45;22.20;;;;;;;9.57;61.45;94518.78;4228529;27;20460;-71
2024/03/06 08:18:37;;;;;;;31.83;21.95;;;;;;;9.66;61.78;94515.25;4235970;27;20109;-70
2024/03/06 08:20:39;;;;;;;33.35;22.17;;;;;;;9.84;61.68;94510.72;4244010;27;20114;-70
2024/03/06 08:22:42;;;;;;;31.80;22.38;;;;;;;9.98;61.43;94511.91;4242673;27;20063;-71
2024/03/06 08:24:44;;;;;;;35.03;22.90;;;;;;;9.96;60.24;94510.41;4233141;27;20131;-72
2024/03/06 08:26:46;;;;;;;32.13;23.13;;;;;;;9.67;61.01;94514.25;4222253;28;20721;-71
2024/03/06 08:28:48;;;;;;;34.08;23.02;;;;;;;9.64;61.19;94510.16;4228906;27;20128;-72
2024/03/06 08:30:52;;;;;;;30.70;20.83;;;;;;;9.58;60.88;94504.75;4242358;27;20057;-70
2024/03/06 08:32:53;;;;;;;32.72;22.08;;;;;;;9.69;60.82;94507.06;4245261;27;20721;-72
2024/03/06 08:34:56;;;;;;;32.60;22.92;;;;;;;9.71;60.36;94505.13;4243884;27;20055;-70
2024/03/06 08:37:00;;;;;;;34.03;21.73;;;;;;;9.84;60.98;94505.47;4236445;27;20055;-71
2024/03/06 08:39:02;;;;;;;30.90;22.77;;;;;;;9.92;60.25;94509.13;4240513;27;20099;-70
2024/03/06 08:41:05;;;;;;;37.38;23.88;;;;;;;9.90;60.50;94505.84;4239999;27;20312;-70
2024/03/06 08:43:08;;;;;;;36.47;21.95;;;;;;;10.13;60.18;94509.50;4235178;27;20051;-72
2024/03/06 08:45:11;;;;;;;36.38;24.52;;;;;;;10.38;59.56;94509.53;4238947;27;20399;-74
2024/03/06 08:47:13;;;;;;;38.05;23.52;;;;;;;10.19;59.72;94508.00;4238175;27;20104;-71
2024/03/06 08:49:15;;;;;;;33.05;22.52;;;;;;;9.86;60.12;94507.13;4244948;27;20510;-71
2024/03/06 08:51:17;;;;;;;40.50;23.05;;;;;;;9.94;59.95;94512.41;4230337;27;20665;-72
2024/03/06 08:53:19;;;;;;;33.67;23.23;;;;;;;9.88;59.40;94508.59;4240747;27;20494;-70
2024/03/06 08:55:21;;;;;;;43.63;23.85;;;;;;;9.98;60.38;94506.69;4241130;27;20185;-71
2024/03/06 08:57:25;;;;;;;36.35;22.13;;;;;;;10.06;59.48;94500.63;4222401;28;20579;-72
2024/03/06 08:59:27;;;;;;;40.00;23.60;;;;;;;10.13;59.32;94506.88;4243506;27;20073;-72
2024/03/06 09:01:29;;;;;;;35.13;23.17;;;;;;;10.46;59.07;94506.94;4244522;27;20360;-69
2024/03/06 09:03:32;;;;;;;36.20;23.48;;;;;;;10.57;58.63;94505.81;4242775;27;20059;-73
2024/03/06 09:05:34;;;;;;;28.27;21.02;;;;;;;10.46;58.02;94504.31;4238049;27;20083;-73
2024/03/06 09:07:43;;;;;;;37.75;22.40;;;;;;;10.36;58.80;94508.88;4225243;28;20119;-70
2024/03/06 09:09:45;;;;;;;38.28;23.75;;;;;;;10.65;58.66;94511.84;4242633;27;20071;-72
2024/03/06 09:11:47;;;;;;;34.33;22.25;;;;;;;10.23;58.83;94517.19;4232226;27;20085;-73
2024/03/06 09:13:48;;;;;;;34.83;21.88;;;;;;;10.11;59.38;94506.22;4237539;27;20251;-72
2024/03/06 09:15:51;;;;;;;35.53;23.80;;;;;;;10.02;59.69;94512.38;4237927;27;20116;-70
2024/03/06 09:17:53;;;;;;;33.83;22.23;;;;;;;9.93;59.97;94510.75;4241701;27;20065;-72
2024/03/06 09:19:55;;;;;;;33.55;22.25;;;;;;;10.15;59.02;94507.53;4239359;27;20047;-70
2024/03/06 09:22:10;;;;;;;30.02;22.10;;;;;;;10.24;58.88;94503.94;4236853;27;20120;-72
2024/03/06 09:24:12;;;;;;;31.45;20.63;;;;;;;10.53;58.44;94501.88;4225307;28;20047;-74
2024/03/06 09:26:13;;;;;;;33.72;22.13;;;;;;;10.53;58.11;94501.88;4240631;27;20284;-72
2024/03/06 09:28:15;;;;;;;35.78;21.88;;;;;;;10.48;58.04;94501.56;4239536;27;20088;-72
2024/03/06 09:30:18;;;;;;;31.42;21.48;;;;;;;10.78;57.71;94495.63;4240686;27;20450;-72
2024/03/06 09:32:19;;;;;;;30.95;20.35;;;;;;;11.02;56.80;94496.59;4229293;27;20055;-72
2024/03/06 09:34:23;;;;;;;29.95;19.77;;;;;;;11.14;56.57;94502.28;4237737;27;20051;-71
2024/03/06 09:36:25;;;;;;;32.13;21.60;;;;;;;11.07;55.99;94494.28;4224714;28;20081;-71